sensor_id;sensor_type;location;lat;lon;timestamp;pressure;altitude;pressure_sealevel;temperature;humidity
10097;BME280;5087;42.662;23.466;2023-07-28T00:02:21;95491.38;;;12.69;100.00
10097;BME280;5087;42.662;23.466;2023-07-28T00:04:48;95476.09;;;12.46;100.00
10097;BME280;5087;42.662;23.466;2023-07-28T00:07:17;95492.31;;;12.34;100.00
10097;BME280;5087;42.662;23.466;2023-07-28T00:09:48;95493.31;;;12.21;100.00
10097;BME280;5087;42.662;23.466;2023-07-28T00:12:15;95491.09;;;12.05;100.00
10097;BME280;5087;42.662;23.466;2023-07-28T00:14:45;95451.91;;;11.62;100.00
10097;BME280;5087;42.662;23.466;2023-07-28T00:17:13;95487.28;;;11.80;100.00
10097;BME280;5087;42.662;23.466;2023-07-28T00:19:41;95494.16;;;11.68;100.00
10097;BME280;5087;42.662;23.466;2023-07-28T00:22:08;95453.53;;;11.28;100.00
10097;BME280;5087;42.662;23.466;2023-07-28T00:24:36;95469.03;;;11.28;100.00
10097;BME280;5087;42.662;23.466;2023-07-28T00:27:04;95468.53;;;11.17;100.00
10097;BME280;5087;42.662;23.466;2023-07-28T00:29:31;95493.66;;;11.22;100.00
10097;BME280;5087;42.662;23.466;2023-07-28T00:31:59;95475.16;;;10.67;100.00
10097;BME280;5087;42.662;23.466;2023-07-28T00:34:26;95482.41;;;10.40;100.00
10097;BME280;5087;42.662;23.466;2023-07-28T00:36:55;95443.78;;;10.11;100.00
10097;BME280;5087;42.662;23.466;2023-07-28T00:39:22;95468.53;;;10.19;100.00
10097;BME280;5087;42.662;23.466;2023-07-28T00:41:49;95485.28;;;10.43;100.00
10097;BME280;5087;42.662;23.466;2023-07-28T00:44:17;95485.63;;;10.42;100.00
10097;BME280;5087;42.662;23.466;2023-07-28T00:46:45;95488.72;;;10.35;100.00
10097;BME280;5087;42.662;23.466;2023-07-28T00:49:13;95488.38;;;10.28;100.00
10097;BME280;5087;42.662;23.466;2023-07-28T00:51:41;95500.19;;;10.32;100.00
10097;BME280;5087;42.662;23.466;2023-07-28T00:54:09;95497.59;;;10.18;100.00
10097;BME280;5087;42.662;23.466;2023-07-28T00:56:37;95503.28;;;10.08;100.00
10097;BME280;5087;42.662;23.466;2023-07-28T00:59:04;95495.84;;;9.91;100.00
10097;BME280;5087;42.662;23.466;2023-07-28T01:01:33;95471.25;;;9.64;100.00
10097;BME280;5087;42.662;23.466;2023-07-28T01:04:00;95495.72;;;9.73;100.00
10097;BME280;5087;42.662;23.466;2023-07-28T01:06:33;95487.94;;;9.58;100.00
10097;BME280;5087;42.662;23.466;2023-07-28T01:09:14;95495.81;;;9.45;100.00
10097;BME280;5087;42.662;23.466;2023-07-28T01:11:55;95497.16;;;9.34;100.00
10097;BME280;5087;42.662;23.466;2023-07-28T01:14:23;95505.78;;;9.36;100.00
10097;BME280;5087;42.662;23.466;2023-07-28T01:16:50;95498.88;;;9.30;100.00
10097;BME280;5087;42.662;23.466;2023-07-28T01:19:20;95487.88;;;9.12;100.00
10097;BME280;5087;42.662;23.466;2023-07-28T01:21:52;95483.69;;;9.06;100.00
10097;BME280;5087;42.662;23.466;2023-07-28T01:24:23;95483.88;;;9.10;100.00
10097;BME280;5087;42.662;23.466;2023-07-28T01:26:57;95480.47;;;9.04;100.00
10097;BME280;5087;42.662;23.466;2023-07-28T01:29:24;95503.03;;;9.13;100.00
10097;BME280;5087;42.662;23.466;2023-07-28T01:31:52;95489.31;;;8.96;100.00
10097;BME280;5087;42.662;23.466;2023-07-28T01:34:19;95498.53;;;8.95;100.00
10097;BME280;5087;42.662;23.466;2023-07-28T01:36:46;95480.50;;;8.90;100.00
10097;BME280;5087;42.662;23.466;2023-07-28T01:39:14;95485.69;;;9.00;100.00
10097;BME280;5087;42.662;23.466;2023-07-28T01:41:42;95481.06;;;9.01;100.00
10097;BME280;5087;42.662;23.466;2023-07-28T01:44:10;95452.63;;;8.76;100.00
10097;BME280;5087;42.662;23.466;2023-07-28T01:46:38;95452.44;;;8.72;100.00
10097;BME280;5087;42.662;23.466;2023-07-28T01:49:08;95490.53;;;8.90;100.00
10097;BME280;5087;42.662;23.466;2023-07-28T01:51:36;95482.72;;;8.88;100.00
10097;BME280;5087;42.662;23.466;2023-07-28T01:54:03;95482.09;;;8.91;100.00
10097;BME280;5087;42.662;23.466;2023-07-28T01:56:30;95471.50;;;8.81;100.00
10097;BME280;5087;42.662;23.466;2023-07-28T01:58:58;95483.72;;;8.78;100.00
10097;BME280;5087;42.662;23.466;2023-07-28T02:01:26;95493.56;;;8.74;100.00
10097;BME280;5087;42.662;23.466;2023-07-28T02:03:54;95468.00;;;8.52;100.00
10097;BME280;5087;42.662;23.466;2023-07-28T02:06:21;95488.25;;;8.69;100.00
10097;BME280;5087;42.662;23.466;2023-07-28T02:08:48;95478.84;;;8.52;100.00
10097;BME280;5087;42.662;23.466;2023-07-28T02:11:16;95499.16;;;8.64;100.00
10097;BME280;5087;42.662;23.466;2023-07-28T02:13:43;95497.56;;;8.63;100.00
10097;BME280;5087;42.662;23.466;2023-07-28T02:16:16;95500.97;;;8.54;100.00
10097;BME280;5087;42.662;23.466;2023-07-28T02:18:44;95503.59;;;8.60;100.00
10097;BME280;5087;42.662;23.466;2023-07-28T02:21:14;95485.75;;;8.59;100.00
10097;BME280;5087;42.662;23.466;2023-07-28T02:23:42;95505.09;;;8.66;100.00
10097;BME280;5087;42.662;23.466;2023-07-28T02:26:12;95496.97;;;8.66;100.00
10097;BME280;5087;42.662;23.466;2023-07-28T02:28:39;95480.13;;;8.55;100.00
10097;BME280;5087;42.662;23.466;2023-07-28T02:31:06;95509.91;;;8.69;100.00
10097;BME280;5087;42.662;23.466;2023-07-28T02:33:34;95506.38;;;8.68;100.00
10097;BME280;5087;42.662;23.466;2023-07-28T02:36:03;95505.59;;;8.68;100.00
10097;BME280;5087;42.662;23.466;2023-07-28T02:38:31;95505.59;;;8.68;100.00
10097;BME280;5087;42.662;23.466;2023-07-28T02:40:58;95475.09;;;8.48;100.00
10097;BME280;5087;42.662;23.466;2023-07-28T02:43:25;95512.69;;;8.64;100.00
10097;BME280;5087;42.662;23.466;2023-07-28T02:45:53;95505.00;;;8.57;100.00
10097;BME280;5087;42.662;23.466;2023-07-28T02:48:20;95505.78;;;8.58;100.00
10097;BME280;5087;42.662;23.466;2023-07-28T02:50:50;95487.03;;;8.47;100.00
10097;BME280;5087;42.662;23.466;2023-07-28T02:53:19;95478.19;;;8.42;100.00
10097;BME280;5087;42.662;23.466;2023-07-28T02:55:47;95509.50;;;8.62;100.00
10097;BME280;5087;42.662;23.466;2023-07-28T02:58:14;95484.09;;;8.44;100.00
10097;BME280;5087;42.662;23.466;2023-07-28T03:00:42;95495.97;;;8.48;100.00
10097;BME280;5087;42.662;23.466;2023-07-28T03:03:16;95515.00;;;8.57;100.00
10097;BME280;5087;42.662;23.466;2023-07-28T03:05:44;95505.06;;;8.52;100.00
10097;BME280;5087;42.662;23.466;2023-07-28T03:08:21;95504.28;;;8.51;100.00
10097;BME280;5087;42.662;23.466;2023-07-28T03:10:49;95491.53;;;8.38;100.00
10097;BME280;5087;42.662;23.466;2023-07-28T03:13:16;95498.44;;;8.44;100.00
10097;BME280;5087;42.662;23.466;2023-07-28T03:15:45;95501.94;;;8.45;100.00
10097;BME280;5087;42.662;23.466;2023-07-28T03:18:12;95510.28;;;8.48;100.00
10097;BME280;5087;42.662;23.466;2023-07-28T03:20:39;95512.97;;;8.48;100.00
10097;BME280;5087;42.662;23.466;2023-07-28T03:23:07;95504.94;;;8.43;100.00
10097;BME280;5087;42.662;23.466;2023-07-28T03:25:35;95500.31;;;8.44;100.00
10097;BME280;5087;42.662;23.466;2023-07-28T03:28:03;95524.22;;;8.69;100.00
10097;BME280;5087;42.662;23.466;2023-07-28T03:30:30;95515.50;;;8.73;100.00
10097;BME280;5087;42.662;23.466;2023-07-28T03:32:57;95521.59;;;8.78;100.00
10097;BME280;5087;42.662;23.466;2023-07-28T03:35:25;95504.97;;;8.71;100.00
10097;BME280;5087;42.662;23.466;2023-07-28T03:38:03;95517.41;;;8.72;100.00
10097;BME280;5087;42.662;23.466;2023-07-28T03:40:30;95526.44;;;8.81;100.00
10097;BME280;5087;42.662;23.466;2023-07-28T03:42:59;95520.22;;;8.81;100.00
10097;BME280;5087;42.662;23.466;2023-07-28T03:45:27;95521.59;;;8.92;100.00
10097;BME280;5087;42.662;23.466;2023-07-28T03:47:54;95518.59;;;9.08;100.00
10097;BME280;5087;42.662;23.466;2023-07-28T03:50:21;95491.09;;;9.14;100.00
10097;BME280;5087;42.662;23.466;2023-07-28T03:52:50;95521.69;;;9.52;100.00
10097;BME280;5087;42.662;23.466;2023-07-28T03:55:17;95521.44;;;9.62;100.00
10097;BME280;5087;42.662;23.466;2023-07-28T03:57:44;95544.25;;;9.61;100.00
10097;BME280;5087;42.662;23.466;2023-07-28T04:00:13;95514.19;;;9.71;100.00
10097;BME280;5087;42.662;23.466;2023-07-28T04:02:41;95527.38;;;9.87;100.00
10097;BME280;5087;42.662;23.466;2023-07-28T04:05:08;95513.09;;;9.72;100.00
10097;BME280;5087;42.662;23.466;2023-07-28T04:07:36;95477.47;;;9.42;100.00
10097;BME280;5087;42.662;23.466;2023-07-28T04:10:04;95530.03;;;9.78;100.00
10097;BME280;5087;42.662;23.466;2023-07-28T04:12:34;95512.41;;;9.66;100.00
10097;BME280;5087;42.662;23.466;2023-07-28T04:15:01;95532.44;;;9.79;100.00
10097;BME280;5087;42.662;23.466;2023-07-28T04:17:30;95528.38;;;9.91;100.00
10097;BME280;5087;42.662;23.466;2023-07-28T04:20:00;95540.34;;;9.90;100.00
10097;BME280;5087;42.662;23.466;2023-07-28T04:22:28;95532.38;;;9.93;100.00
10097;BME280;5087;42.662;23.466;2023-07-28T04:24:56;95540.19;;;10.18;100.00
10097;BME280;5087;42.662;23.466;2023-07-28T04:27:23;95521.56;;;10.25;100.00
10097;BME280;5087;42.662;23.466;2023-07-28T04:29:56;95531.28;;;10.49;100.00
10097;BME280;5087;42.662;23.466;2023-07-28T04:32:24;95535.56;;;10.41;100.00
10097;BME280;5087;42.662;23.466;2023-07-28T04:34:56;95547.13;;;10.55;100.00
10097;BME280;5087;42.662;23.466;2023-07-28T04:37:55;95522.56;;;10.60;100.00
10097;BME280;5087;42.662;23.466;2023-07-28T04:40:34;95517.81;;;10.75;100.00
10097;BME280;5087;42.662;23.466;2023-07-28T04:43:01;95535.75;;;10.85;100.00
10097;BME280;5087;42.662;23.466;2023-07-28T04:45:29;95523.13;;;10.80;100.00
10097;BME280;5087;42.662;23.466;2023-07-28T04:48:00;95535.03;;;11.11;100.00
10097;BME280;5087;42.662;23.466;2023-07-28T04:50:29;95529.28;;;11.12;100.00
10097;BME280;5087;42.662;23.466;2023-07-28T04:53:15;95543.19;;;11.11;100.00
10097;BME280;5087;42.662;23.466;2023-07-28T04:56:01;95540.19;;;11.38;100.00
10097;BME280;5087;42.662;23.466;2023-07-28T04:58:29;95530.16;;;11.56;100.00
10097;BME280;5087;42.662;23.466;2023-07-28T05:01:00;95545.28;;;11.31;100.00
10097;BME280;5087;42.662;23.466;2023-07-28T05:03:28;95538.16;;;11.53;100.00
10097;BME280;5087;42.662;23.466;2023-07-28T05:06:00;95552.06;;;11.69;100.00
10097;BME280;5087;42.662;23.466;2023-07-28T05:08:29;95543.25;;;12.25;100.00
10097;BME280;5087;42.662;23.466;2023-07-28T05:10:57;95535.25;;;12.28;100.00
10097;BME280;5087;42.662;23.466;2023-07-28T05:13:25;95545.31;;;12.28;100.00
10097;BME280;5087;42.662;23.466;2023-07-28T05:15:56;95536.66;;;12.34;100.00
10097;BME280;5087;42.662;23.466;2023-07-28T05:18:46;95529.00;;;12.37;100.00
10097;BME280;5087;42.662;23.466;2023-07-28T05:21:38;95532.66;;;12.41;100.00
10097;BME280;5087;42.662;23.466;2023-07-28T05:24:08;95527.38;;;12.35;100.00
10097;BME280;5087;42.662;23.466;2023-07-28T05:26:36;95541.66;;;12.80;100.00
10097;BME280;5087;42.662;23.466;2023-07-28T05:29:04;95529.50;;;13.07;100.00
10097;BME280;5087;42.662;23.466;2023-07-28T05:31:34;95532.00;;;13.51;100.00
10097;BME280;5087;42.662;23.466;2023-07-28T05:34:04;95541.19;;;13.68;100.00
10097;BME280;5087;42.662;23.466;2023-07-28T05:36:32;95533.84;;;14.02;100.00
10097;BME280;5087;42.662;23.466;2023-07-28T05:39:03;95495.84;;;14.30;100.00
10097;BME280;5087;42.662;23.466;2023-07-28T05:41:37;95529.22;;;14.48;100.00
10097;BME280;5087;42.662;23.466;2023-07-28T05:44:07;95521.00;;;14.36;100.00
10097;BME280;5087;42.662;23.466;2023-07-28T05:46:34;95513.66;;;14.61;100.00
10097;BME280;5087;42.662;23.466;2023-07-28T05:49:02;95524.19;;;15.09;100.00
10097;BME280;5087;42.662;23.466;2023-07-28T05:51:29;95497.50;;;15.18;100.00
10097;BME280;5087;42.662;23.466;2023-07-28T05:53:57;95495.53;;;15.56;100.00
10097;BME280;5087;42.662;23.466;2023-07-28T05:56:25;95513.44;;;15.94;100.00
10097;BME280;5087;42.662;23.466;2023-07-28T05:58:53;95502.84;;;15.92;100.00
10097;BME280;5087;42.662;23.466;2023-07-28T06:01:20;95481.66;;;15.89;100.00
10097;BME280;5087;42.662;23.466;2023-07-28T06:04:09;95497.31;;;16.33;100.00
10097;BME280;5087;42.662;23.466;2023-07-28T06:06:42;95512.78;;;15.85;100.00
10097;BME280;5087;42.662;23.466;2023-07-28T06:09:12;95501.59;;;15.37;100.00
10097;BME280;5087;42.662;23.466;2023-07-28T06:11:41;95509.56;;;15.95;100.00
10097;BME280;5087;42.662;23.466;2023-07-28T06:14:09;95494.97;;;15.91;100.00
10097;BME280;5087;42.662;23.466;2023-07-28T06:16:37;95496.97;;;16.67;100.00
10097;BME280;5087;42.662;23.466;2023-07-28T06:19:08;95494.94;;;16.32;100.00
10097;BME280;5087;42.662;23.466;2023-07-28T06:21:38;95482.69;;;16.29;100.00
10097;BME280;5087;42.662;23.466;2023-07-28T06:24:05;95493.97;;;16.56;100.00
10097;BME280;5087;42.662;23.466;2023-07-28T06:26:36;95489.28;;;16.88;100.00
10097;BME280;5087;42.662;23.466;2023-07-28T06:29:04;95500.22;;;17.01;100.00
10097;BME280;5087;42.662;23.466;2023-07-28T06:31:34;95484.50;;;17.53;100.00
10097;BME280;5087;42.662;23.466;2023-07-28T06:34:01;95487.09;;;16.94;100.00
10097;BME280;5087;42.662;23.466;2023-07-28T06:36:29;95475.81;;;17.31;100.00
10097;BME280;5087;42.662;23.466;2023-07-28T06:38:57;95467.56;;;17.31;100.00
10097;BME280;5087;42.662;23.466;2023-07-28T06:41:24;95475.84;;;17.90;100.00
10097;BME280;5087;42.662;23.466;2023-07-28T06:43:59;95479.91;;;17.57;100.00
10097;BME280;5087;42.662;23.466;2023-07-28T06:46:29;95469.19;;;18.07;100.00
10097;BME280;5087;42.662;23.466;2023-07-28T06:48:56;95494.94;;;17.28;100.00
10097;BME280;5087;42.662;23.466;2023-07-28T06:51:25;95462.13;;;16.67;100.00
10097;BME280;5087;42.662;23.466;2023-07-28T06:53:52;95477.53;;;17.20;100.00
10097;BME280;5087;42.662;23.466;2023-07-28T06:56:22;95457.06;;;17.53;100.00
10097;BME280;5087;42.662;23.466;2023-07-28T06:58:50;95471.88;;;18.27;100.00
10097;BME280;5087;42.662;23.466;2023-07-28T07:01:18;95476.09;;;18.44;100.00
10097;BME280;5087;42.662;23.466;2023-07-28T07:03:47;95470.41;;;18.10;100.00
10097;BME280;5087;42.662;23.466;2023-07-28T07:06:14;95464.28;;;18.40;100.00
10097;BME280;5087;42.662;23.466;2023-07-28T07:08:42;95471.81;;;18.23;100.00
10097;BME280;5087;42.662;23.466;2023-07-28T07:11:12;95470.09;;;18.15;100.00
10097;BME280;5087;42.662;23.466;2023-07-28T07:13:39;95473.34;;;18.90;100.00
10097;BME280;5087;42.662;23.466;2023-07-28T07:16:13;95464.16;;;18.79;93.76
10097;BME280;5087;42.662;23.466;2023-07-28T07:18:42;95470.34;;;19.22;87.51
10097;BME280;5087;42.662;23.466;2023-07-28T07:21:11;95479.13;;;19.32;86.32
10097;BME280;5087;42.662;23.466;2023-07-28T07:23:38;95463.06;;;19.64;91.05
10097;BME280;5087;42.662;23.466;2023-07-28T07:26:24;95474.50;;;18.19;100.00
10097;BME280;5087;42.662;23.466;2023-07-28T07:28:52;95471.47;;;18.71;100.00
10097;BME280;5087;42.662;23.466;2023-07-28T07:31:19;95470.47;;;19.03;94.56
10097;BME280;5087;42.662;23.466;2023-07-28T07:33:47;95469.81;;;19.13;95.26
10097;BME280;5087;42.662;23.466;2023-07-28T07:36:16;95475.41;;;18.93;91.71
10097;BME280;5087;42.662;23.466;2023-07-28T07:38:44;95479.91;;;18.82;92.32
10097;BME280;5087;42.662;23.466;2023-07-28T07:41:13;95471.59;;;19.55;90.25
10097;BME280;5087;42.662;23.466;2023-07-28T07:43:42;95470.75;;;19.51;84.06
10097;BME280;5087;42.662;23.466;2023-07-28T07:46:09;95462.97;;;19.03;91.23
10097;BME280;5087;42.662;23.466;2023-07-28T07:48:36;95479.72;;;19.18;90.03
10097;BME280;5087;42.662;23.466;2023-07-28T07:51:03;95446.09;;;19.62;87.69
10097;BME280;5087;42.662;23.466;2023-07-28T07:53:32;95469.34;;;20.26;82.18
10097;BME280;5087;42.662;23.466;2023-07-28T07:56:02;95475.41;;;20.83;78.08
10097;BME280;5087;42.662;23.466;2023-07-28T07:58:29;95461.13;;;20.33;79.54
10097;BME280;5087;42.662;23.466;2023-07-28T08:00:57;95479.53;;;19.60;81.22
10097;BME280;5087;42.662;23.466;2023-07-28T08:03:24;95470.19;;;19.69;80.16
10097;BME280;5087;42.662;23.466;2023-07-28T08:05:53;95480.28;;;20.18;79.33
10097;BME280;5087;42.662;23.466;2023-07-28T08:08:21;95494.44;;;20.54;77.30
10097;BME280;5087;42.662;23.466;2023-07-28T08:10:50;95478.06;;;21.17;76.76
10097;BME280;5087;42.662;23.466;2023-07-28T08:13:18;95470.84;;;21.02;71.82
10097;BME280;5087;42.662;23.466;2023-07-28T08:15:45;95473.28;;;21.70;69.52
10097;BME280;5087;42.662;23.466;2023-07-28T08:18:19;95466.09;;;22.65;66.40
10097;BME280;5087;42.662;23.466;2023-07-28T08:20:46;95459.19;;;21.30;68.03
10097;BME280;5087;42.662;23.466;2023-07-28T08:23:14;95444.91;;;21.14;70.53
10097;BME280;5087;42.662;23.466;2023-07-28T08:25:42;95437.72;;;21.02;71.71
10097;BME280;5087;42.662;23.466;2023-07-28T08:28:13;95448.38;;;21.63;68.75
10097;BME280;5087;42.662;23.466;2023-07-28T08:30:40;95434.69;;;21.22;70.64
10097;BME280;5087;42.662;23.466;2023-07-28T08:33:08;95435.19;;;21.34;67.47
10097;BME280;5087;42.662;23.466;2023-07-28T08:35:35;95440.78;;;22.66;63.05
10097;BME280;5087;42.662;23.466;2023-07-28T08:38:02;95439.44;;;23.97;60.26
10097;BME280;5087;42.662;23.466;2023-07-28T08:40:30;95445.81;;;23.76;58.95
10097;BME280;5087;42.662;23.466;2023-07-28T08:42:58;95453.44;;;22.78;62.36
10097;BME280;5087;42.662;23.466;2023-07-28T08:45:26;95439.19;;;22.43;63.41
10097;BME280;5087;42.662;23.466;2023-07-28T08:47:54;95421.81;;;22.83;65.25
10097;BME280;5087;42.662;23.466;2023-07-28T08:50:21;95443.19;;;22.71;63.02
10097;BME280;5087;42.662;23.466;2023-07-28T08:52:48;95439.19;;;23.48;63.02
10097;BME280;5087;42.662;23.466;2023-07-28T08:55:16;95440.28;;;23.76;55.82
10097;BME280;5087;42.662;23.466;2023-07-28T08:57:43;95416.69;;;24.31;55.14
10097;BME280;5087;42.662;23.466;2023-07-28T09:00:12;95421.81;;;23.41;56.97
10097;BME280;5087;42.662;23.466;2023-07-28T09:02:42;95424.59;;;22.90;59.20
10097;BME280;5087;42.662;23.466;2023-07-28T09:05:18;95419.84;;;23.23;58.86
10097;BME280;5087;42.662;23.466;2023-07-28T09:07:46;95409.81;;;23.73;59.20
10097;BME280;5087;42.662;23.466;2023-07-28T09:10:14;95392.97;;;24.23;54.81
10097;BME280;5087;42.662;23.466;2023-07-28T09:12:45;95405.13;;;24.96;54.31
10097;BME280;5087;42.662;23.466;2023-07-28T09:15:16;95386.94;;;23.54;54.73
10097;BME280;5087;42.662;23.466;2023-07-28T09:17:45;95382.13;;;23.65;56.13
10097;BME280;5087;42.662;23.466;2023-07-28T09:20:14;95370.00;;;23.23;57.45
10097;BME280;5087;42.662;23.466;2023-07-28T09:22:42;95381.75;;;23.63;54.40
10097;BME280;5087;42.662;23.466;2023-07-28T09:25:14;95362.22;;;23.96;51.82
10097;BME280;5087;42.662;23.466;2023-07-28T09:27:49;95376.06;;;23.92;52.85
10097;BME280;5087;42.662;23.466;2023-07-28T09:30:19;95373.78;;;25.38;52.84
10097;BME280;5087;42.662;23.466;2023-07-28T09:32:50;95351.59;;;24.96;51.43
10097;BME280;5087;42.662;23.466;2023-07-28T09:35:18;95374.59;;;25.35;50.24
10097;BME280;5087;42.662;23.466;2023-07-28T09:37:47;95351.91;;;26.09;50.95
10097;BME280;5087;42.662;23.466;2023-07-28T09:40:20;95343.94;;;25.04;51.61
10097;BME280;5087;42.662;23.466;2023-07-28T09:42:49;95355.25;;;23.55;52.92
10097;BME280;5087;42.662;23.466;2023-07-28T09:45:20;95342.31;;;23.12;53.68
10097;BME280;5087;42.662;23.466;2023-07-28T09:47:53;95341.94;;;22.99;54.71
10097;BME280;5087;42.662;23.466;2023-07-28T09:50:24;95344.59;;;24.28;52.43
10097;BME280;5087;42.662;23.466;2023-07-28T09:52:54;95338.97;;;24.39;53.21
10097;BME280;5087;42.662;23.466;2023-07-28T09:55:26;95332.84;;;24.06;52.21
10097;BME280;5087;42.662;23.466;2023-07-28T09:57:56;95322.13;;;25.06;51.21
10097;BME280;5087;42.662;23.466;2023-07-28T10:00:25;95317.44;;;24.50;51.51
10097;BME280;5087;42.662;23.466;2023-07-28T10:02:56;95331.88;;;24.83;53.19
10097;BME280;5087;42.662;23.466;2023-07-28T10:05:23;95326.88;;;24.63;52.86
10097;BME280;5087;42.662;23.466;2023-07-28T10:07:51;95331.72;;;24.52;52.36
10097;BME280;5087;42.662;23.466;2023-07-28T10:10:19;95326.66;;;24.40;52.54
10097;BME280;5087;42.662;23.466;2023-07-28T10:12:47;95307.69;;;23.67;55.04
10097;BME280;5087;42.662;23.466;2023-07-28T10:15:17;95324.22;;;24.94;52.66
10097;BME280;5087;42.662;23.466;2023-07-28T10:17:46;95314.28;;;25.97;49.00
10097;BME280;5087;42.662;23.466;2023-07-28T10:20:30;95321.53;;;26.93;46.71
10097;BME280;5087;42.662;23.466;2023-07-28T10:23:11;95311.72;;;25.48;48.65
10097;BME280;5087;42.662;23.466;2023-07-28T10:25:59;95312.84;;;26.16;49.42
10097;BME280;5087;42.662;23.466;2023-07-28T10:28:28;95303.50;;;25.72;49.99
10097;BME280;5087;42.662;23.466;2023-07-28T10:30:58;95312.28;;;26.52;48.57
10097;BME280;5087;42.662;23.466;2023-07-28T10:33:32;95306.53;;;26.87;47.62
10097;BME280;5087;42.662;23.466;2023-07-28T10:36:11;95313.44;;;25.00;51.53
10097;BME280;5087;42.662;23.466;2023-07-28T10:38:39;95309.84;;;25.03;50.23
10097;BME280;5087;42.662;23.466;2023-07-28T10:41:14;95298.13;;;25.57;49.25
10097;BME280;5087;42.662;23.466;2023-07-28T10:43:43;95282.75;;;25.49;48.58
10097;BME280;5087;42.662;23.466;2023-07-28T10:46:13;95280.78;;;26.55;47.66
10097;BME280;5087;42.662;23.466;2023-07-28T10:48:45;95284.41;;;26.29;49.36
10097;BME280;5087;42.662;23.466;2023-07-28T10:51:20;95281.41;;;26.43;50.22
10097;BME280;5087;42.662;23.466;2023-07-28T10:53:50;95263.56;;;25.58;51.02
10097;BME280;5087;42.662;23.466;2023-07-28T10:56:18;95270.63;;;25.32;50.91
10097;BME280;5087;42.662;23.466;2023-07-28T10:58:45;95275.63;;;26.03;51.19
10097;BME280;5087;42.662;23.466;2023-07-28T11:01:14;95269.19;;;27.25;46.81
10097;BME280;5087;42.662;23.466;2023-07-28T11:03:42;95273.91;;;27.28;46.63
10097;BME280;5087;42.662;23.466;2023-07-28T11:06:09;95261.19;;;27.67;45.01
10097;BME280;5087;42.662;23.466;2023-07-28T11:08:38;95246.72;;;27.15;47.70
10097;BME280;5087;42.662;23.466;2023-07-28T11:11:08;95261.44;;;25.70;46.88
10097;BME280;5087;42.662;23.466;2023-07-28T11:13:35;95245.28;;;26.16;45.98
10097;BME280;5087;42.662;23.466;2023-07-28T11:16:03;95237.13;;;27.16;46.35
10097;BME280;5087;42.662;23.466;2023-07-28T11:18:30;95243.53;;;26.49;47.68
10097;BME280;5087;42.662;23.466;2023-07-28T11:20:57;95231.41;;;26.60;47.69
10097;BME280;5087;42.662;23.466;2023-07-28T11:23:25;95213.13;;;26.59;48.27
10097;BME280;5087;42.662;23.466;2023-07-28T11:25:54;95234.47;;;27.09;47.30
10097;BME280;5087;42.662;23.466;2023-07-28T11:28:21;95232.38;;;27.74;46.75
10097;BME280;5087;42.662;23.466;2023-07-28T11:30:48;95218.44;;;28.73;43.85
10097;BME280;5087;42.662;23.466;2023-07-28T11:33:16;95217.41;;;26.87;46.86
10097;BME280;5087;42.662;23.466;2023-07-28T11:35:45;95227.28;;;26.68;47.92
10097;BME280;5087;42.662;23.466;2023-07-28T11:38:14;95214.88;;;27.53;47.29
10097;BME280;5087;42.662;23.466;2023-07-28T11:40:42;95219.81;;;26.17;46.75
10097;BME280;5087;42.662;23.466;2023-07-28T11:43:11;95222.41;;;25.77;47.45
10097;BME280;5087;42.662;23.466;2023-07-28T11:45:45;95225.44;;;26.37;47.40
10097;BME280;5087;42.662;23.466;2023-07-28T11:48:15;95217.44;;;26.39;48.53
10097;BME280;5087;42.662;23.466;2023-07-28T11:50:43;95202.00;;;26.59;46.83
10097;BME280;5087;42.662;23.466;2023-07-28T11:53:11;95210.59;;;27.48;47.44
10097;BME280;5087;42.662;23.466;2023-07-28T11:55:39;95205.00;;;26.68;45.87
10097;BME280;5087;42.662;23.466;2023-07-28T11:58:10;95181.44;;;26.96;45.90
10097;BME280;5087;42.662;23.466;2023-07-28T12:00:39;95196.53;;;27.36;47.04
10097;BME280;5087;42.662;23.466;2023-07-28T12:03:09;95207.75;;;27.69;46.46
10097;BME280;5087;42.662;23.466;2023-07-28T12:05:38;95197.03;;;27.10;44.75
10097;BME280;5087;42.662;23.466;2023-07-28T12:08:06;95202.44;;;27.58;46.21
10097;BME280;5087;42.662;23.466;2023-07-28T12:10:34;95172.25;;;27.16;46.52
10097;BME280;5087;42.662;23.466;2023-07-28T12:13:04;95199.84;;;26.90;46.27
10097;BME280;5087;42.662;23.466;2023-07-28T12:15:40;95176.00;;;26.89;46.42
10097;BME280;5087;42.662;23.466;2023-07-28T12:18:09;95182.16;;;26.57;47.28
10097;BME280;5087;42.662;23.466;2023-07-28T12:20:40;95196.16;;;26.73;46.74
10097;BME280;5087;42.662;23.466;2023-07-28T12:23:07;95204.63;;;26.46;46.67
10097;BME280;5087;42.662;23.466;2023-07-28T12:25:36;95188.16;;;27.36;45.58
10097;BME280;5087;42.662;23.466;2023-07-28T12:28:04;95173.88;;;27.33;47.63
10097;BME280;5087;42.662;23.466;2023-07-28T12:30:31;95181.75;;;27.18;47.47
10097;BME280;5087;42.662;23.466;2023-07-28T12:33:00;95159.06;;;27.00;46.32
10097;BME280;5087;42.662;23.466;2023-07-28T12:35:27;95160.13;;;27.06;46.02
10097;BME280;5087;42.662;23.466;2023-07-28T12:37:57;95178.88;;;27.42;46.31
10097;BME280;5087;42.662;23.466;2023-07-28T12:40:27;95180.41;;;27.07;46.61
10097;BME280;5087;42.662;23.466;2023-07-28T12:42:55;95175.56;;;27.47;45.12
10097;BME280;5087;42.662;23.466;2023-07-28T12:45:23;95167.78;;;27.39;45.60
10097;BME280;5087;42.662;23.466;2023-07-28T12:47:51;95150.00;;;27.32;46.49
10097;BME280;5087;42.662;23.466;2023-07-28T12:50:22;95156.03;;;27.31;45.17
10097;BME280;5087;42.662;23.466;2023-07-28T12:52:50;95155.63;;;27.12;45.29
10097;BME280;5087;42.662;23.466;2023-07-28T12:55:18;95147.63;;;26.74;46.52
10097;BME280;5087;42.662;23.466;2023-07-28T12:57:46;95148.25;;;27.92;45.60
10097;BME280;5087;42.662;23.466;2023-07-28T13:00:15;95124.84;;;26.99;44.40
10097;BME280;5087;42.662;23.466;2023-07-28T13:02:43;95145.63;;;28.01;45.48
10097;BME280;5087;42.662;23.466;2023-07-28T13:05:11;95133.25;;;28.19;44.77
10097;BME280;5087;42.662;23.466;2023-07-28T13:07:40;95138.50;;;27.67;43.82
10097;BME280;5087;42.662;23.466;2023-07-28T13:10:09;95141.47;;;27.93;44.73